Time;durP1;ratioP1;P1;durP2;ratioP2;P2;SDS_P1;SDS_P2;PMS_P1;PMS_P2;Temp;Humidity;BMP_temperature;BMP_pressure;BME280_temperature;BME280_humidity;BME280_pressure;Samples;Min_cycle;Max_cycle;Signal;HPM_P1;HPM_P2
2023/10/23 00:00:41;;;;;;;5.07;2.80;;;11.00;99.90;;;;;;5007429;28;19913;-86
2023/10/23 00:03:07;;;;;;;6.25;3.08;;;11.00;99.90;;;;;;4994642;28;20869;-86
2023/10/23 00:05:32;;;;;;;3.83;2.75;;;11.00;99.90;;;;;;4995046;28;20557;-86
2023/10/23 00:08:00;;;;;;;4.32;2.65;;;11.00;99.90;;;;;;4996711;28;20478;-86
2023/10/23 00:10:27;;;;;;;5.30;3.08;;;11.00;99.90;;;;;;4995624;28;20029;-85
2023/10/23 00:12:54;;;;;;;3.95;3.05;;;11.00;99.90;;;;;;4995593;28;20022;-85
2023/10/23 00:15:20;;;;;;;4.28;2.83;;;10.90;99.90;;;;;;5010421;28;20049;-86
2023/10/23 00:17:47;;;;;;;7.47;3.70;;;11.00;99.90;;;;;;4988544;28;20014;-86
2023/10/23 00:20:13;;;;;;;4.53;3.22;;;11.00;99.90;;;;;;4995369;28;20028;-86
2023/10/23 00:22:38;;;;;;;6.15;3.28;;;11.00;99.90;;;;;;4996391;28;20495;-84
2023/10/23 00:25:04;;;;;;;5.70;3.40;;;11.00;99.90;;;;;;4994092;28;20065;-86
2023/10/23 00:27:30;;;;;;;6.32;3.22;;;11.10;99.90;;;;;;4994813;28;20022;-86
2023/10/23 00:30:06;;;;;;;6.35;3.38;;;11.10;99.90;;;;;;4995365;28;20102;-86
2023/10/23 00:32:32;;;;;;;3.67;2.58;;;11.00;99.90;;;;;;5000285;28;20049;-86
2023/10/23 00:34:58;;;;;;;7.35;3.03;;;11.00;99.90;;;;;;4996485;28;20026;-86
2023/10/23 00:37:24;;;;;;;5.45;3.33;;;11.00;99.90;;;;;;4994547;28;20029;-86
2023/10/23 00:39:49;;;;;;;6.25;3.17;;;11.00;99.90;;;;;;5001662;28;20504;-86
2023/10/23 00:42:15;;;;;;;4.72;3.22;;;11.00;99.90;;;;;;5014941;28;20482;-86
2023/10/23 00:44:41;;;;;;;5.22;3.72;;;10.90;99.90;;;;;;5000924;28;20116;-85
2023/10/23 00:47:07;;;;;;;5.28;3.22;;;10.90;99.90;;;;;;4994706;28;20018;-84
2023/10/23 00:49:32;;;;;;;4.90;3.15;;;10.80;99.90;;;;;;4995326;28;20014;-85
2023/10/23 00:52:00;;;;;;;4.43;3.50;;;10.80;99.90;;;;;;4992594;28;20397;-85
2023/10/23 00:54:26;;;;;;;4.95;2.97;;;10.70;99.90;;;;;;4995501;28;20038;-84
2023/10/23 00:56:52;;;;;;;4.75;3.17;;;10.70;99.90;;;;;;4981364;28;20138;-85
2023/10/23 00:59:17;;;;;;;5.68;3.55;;;10.70;99.90;;;;;;4975947;28;20029;-85
2023/10/23 01:01:45;;;;;;;6.55;3.55;;;10.60;99.90;;;;;;4991373;28;20038;-85
2023/10/23 01:04:11;;;;;;;5.60;3.05;;;10.60;99.90;;;;;;4993900;28;20082;-85
2023/10/23 01:06:37;;;;;;;5.97;3.30;;;10.60;99.90;;;;;;5005003;28;20462;-86
2023/10/23 01:09:03;;;;;;;5.80;3.63;;;10.50;99.90;;;;;;4994803;28;20027;-85
2023/10/23 01:11:28;;;;;;;5.13;3.15;;;10.50;99.90;;;;;;4996031;28;20493;-86
2023/10/23 01:13:54;;;;;;;9.45;4.35;;;10.50;99.90;;;;;;4995028;28;20022;-85
2023/10/23 01:16:20;;;;;;;9.48;4.63;;;10.40;99.90;;;;;;4960592;28;20043;-85
2023/10/23 01:18:45;;;;;;;7.72;3.78;;;10.40;99.90;;;;;;4967169;28;20042;-85
2023/10/23 01:21:11;;;;;;;5.30;3.88;;;10.40;99.90;;;;;;4957378;28;20042;-85
2023/10/23 01:23:39;;;;;;;6.45;3.83;;;10.40;99.90;;;;;;4956848;28;20034;-84
2023/10/23 01:26:04;;;;;;;7.32;4.30;;;10.30;99.90;;;;;;4986554;28;20034;-85
2023/10/23 01:28:30;;;;;;;8.27;4.40;;;10.40;99.90;;;;;;4982386;28;20057;-86
2023/10/23 01:30:57;;;;;;;8.20;4.97;;;10.40;99.90;;;;;;4988964;28;20027;-85
2023/10/23 01:33:24;;;;;;;9.07;5.13;;;10.30;99.90;;;;;;4976313;28;20034;-85
2023/10/23 01:35:49;;;;;;;6.93;4.32;;;10.30;99.90;;;;;;4957316;28;20035;-85
2023/10/23 01:38:16;;;;;;;7.22;4.47;;;10.30;99.90;;;;;;4975922;28;20038;-85
2023/10/23 01:40:42;;;;;;;6.53;4.47;;;10.30;99.90;;;;;;4973911;28;20027;-85
2023/10/23 01:43:08;;;;;;;4.93;4.43;;;10.20;99.90;;;;;;4952945;28;20123;-85
2023/10/23 01:45:33;;;;;;;11.57;6.00;;;10.20;99.90;;;;;;4978689;28;20121;-85
2023/10/23 01:48:00;;;;;;;7.85;5.22;;;10.30;99.90;;;;;;4995990;28;20490;-85
2023/10/23 01:50:26;;;;;;;7.95;5.03;;;10.20;99.90;;;;;;4994677;28;20509;-84
2023/10/23 01:52:56;;;;;;;9.63;4.97;;;10.20;99.90;;;;;;4992850;28;20105;-85
2023/10/23 01:55:22;;;;;;;8.63;5.53;;;10.30;99.90;;;;;;4999741;28;20042;-88
2023/10/23 01:57:49;;;;;;;8.15;4.80;;;10.20;99.90;;;;;;4997450;28;20033;-89
2023/10/23 02:00:14;;;;;;;10.18;5.85;;;10.30;99.90;;;;;;4997481;28;20041;-88
2023/10/23 02:02:41;;;;;;;10.98;4.45;;;10.30;99.90;;;;;;5008198;28;20034;-89
2023/10/23 02:05:08;;;;;;;10.25;5.60;;;10.30;99.90;;;;;;5011277;28;20058;-88
2023/10/23 02:07:34;;;;;;;9.95;5.97;;;10.30;99.90;;;;;;4987071;28;20088;-88
2023/10/23 02:10:00;;;;;;;7.78;5.43;;;10.30;99.90;;;;;;4999415;28;20301;-88
2023/10/23 02:12:33;;;;;;;8.98;5.05;;;10.30;99.90;;;;;;5013742;28;20014;-88
2023/10/23 02:15:03;;;;;;;7.18;5.55;;;10.30;99.90;;;;;;5010032;28;20061;-88
2023/10/23 02:17:32;;;;;;;8.88;5.43;;;10.30;99.90;;;;;;5007913;28;20034;-88
2023/10/23 02:19:58;;;;;;;7.15;5.00;;;10.30;99.90;;;;;;4997239;28;20060;-88
2023/10/23 02:22:24;;;;;;;9.73;5.55;;;10.30;99.90;;;;;;4994613;28;20042;-88
2023/10/23 02:24:51;;;;;;;10.35;6.32;;;10.30;99.90;;;;;;4995064;28;20030;-88
2023/10/23 02:27:19;;;;;;;9.67;5.27;;;10.30;99.90;;;;;;5010066;28;20026;-88
2023/10/23 02:29:45;;;;;;;7.78;5.80;;;10.30;99.90;;;;;;5000565;28;20029;-88
2023/10/23 02:32:12;;;;;;;7.97;5.50;;;10.30;99.90;;;;;;4959886;28;20030;-88
2023/10/23 02:34:38;;;;;;;8.10;5.00;;;10.30;99.90;;;;;;4980596;28;20062;-88
2023/10/23 02:37:04;;;;;;;6.95;5.07;;;10.30;99.90;;;;;;4986042;28;20042;-88
2023/10/23 02:39:30;;;;;;;7.82;5.28;;;10.30;99.90;;;;;;4979466;28;20411;-88
2023/10/23 02:41:55;;;;;;;9.30;5.43;;;10.20;99.90;;;;;;4958361;28;20090;-88
2023/10/23 02:44:22;;;;;;;10.13;5.40;;;10.10;99.90;;;;;;4974482;28;20031;-88
2023/10/23 02:46:48;;;;;;;10.43;4.80;;;10.10;99.90;;;;;;4973560;28;20081;-88
2023/10/23 02:49:14;;;;;;;5.32;4.72;;;10.10;99.90;;;;;;4973518;28;20027;-87
2023/10/23 02:51:40;;;;;;;9.10;5.68;;;10.10;99.90;;;;;;4957335;28;20181;-88
2023/10/23 02:54:06;;;;;;;8.45;5.07;;;10.10;99.90;;;;;;4958253;28;20097;-87
2023/10/23 02:56:33;;;;;;;8.68;5.57;;;10.10;99.90;;;;;;4956569;28;20481;-88
2023/10/23 02:58:59;;;;;;;8.85;5.35;;;10.00;99.90;;;;;;4957212;28;20434;-88
2023/10/23 03:01:25;;;;;;;7.38;5.32;;;10.00;99.90;;;;;;4967279;28;20031;-88
2023/10/23 03:03:51;;;;;;;8.10;5.25;;;10.00;99.90;;;;;;5000989;28;20065;-88
2023/10/23 03:06:17;;;;;;;7.18;4.95;;;10.00;99.90;;;;;;5006944;28;20026;-88
2023/10/23 03:08:43;;;;;;;9.07;5.50;;;10.00;99.90;;;;;;5015506;28;20030;-88
2023/10/23 03:11:09;;;;;;;13.55;7.35;;;10.00;99.90;;;;;;5012199;28;20518;-88
2023/10/23 03:13:35;;;;;;;8.63;5.15;;;10.00;99.90;;;;;;5018034;28;20031;-87
2023/10/23 03:16:01;;;;;;;8.73;6.05;;;9.90;99.90;;;;;;5018264;28;20022;-87
2023/10/23 03:18:27;;;;;;;6.93;4.80;;;9.90;99.90;;;;;;5020593;28;20022;-86
2023/10/23 03:20:57;;;;;;;8.68;5.85;;;9.90;99.90;;;;;;5019272;28;20030;-87
2023/10/23 03:23:22;;;;;;;9.75;6.63;;;9.90;99.90;;;;;;5038060;28;20033;-88
2023/10/23 03:25:48;;;;;;;7.72;5.05;;;9.80;99.90;;;;;;5039495;28;20037;-86
2023/10/23 03:28:14;;;;;;;10.77;6.70;;;9.90;99.90;;;;;;5039505;28;20121;-87
2023/10/23 03:31:03;;;;;;;7.50;5.70;;;9.80;99.90;;;;;;5023557;28;20057;-87
2023/10/23 03:33:29;;;;;;;8.15;5.70;;;9.80;99.90;;;;;;5020723;28;20006;-86
2023/10/23 03:35:55;;;;;;;9.93;5.65;;;9.80;99.90;;;;;;5025555;28;20022;-84
2023/10/23 03:38:20;;;;;;;9.00;5.80;;;9.80;99.90;;;;;;5027034;28;20042;-86
2023/10/23 03:40:59;;;;;;;8.05;5.22;;;9.70;99.90;;;;;;5019005;28;20030;-86
2023/10/23 03:43:25;;;;;;;7.38;4.82;;;9.70;99.90;;;;;;5019407;28;20029;-86
2023/10/23 03:45:51;;;;;;;7.75;4.80;;;9.70;99.90;;;;;;5018339;28;20106;-86
2023/10/23 03:48:16;;;;;;;9.60;5.35;;;9.70;99.90;;;;;;5018026;28;20031;-86
2023/10/23 03:50:42;;;;;;;9.98;5.93;;;9.70;99.90;;;;;;5015203;28;20042;-86
2023/10/23 03:53:08;;;;;;;9.95;5.00;;;9.70;99.90;;;;;;5015625;28;20050;-85
2023/10/23 03:55:37;;;;;;;9.95;5.45;;;9.80;99.90;;;;;;5014710;28;20056;-85
2023/10/23 03:58:03;;;;;;;9.88;6.00;;;9.80;99.90;;;;;;5012682;28;20069;-87
2023/10/23 04:00:29;;;;;;;10.23;6.32;;;9.80;99.90;;;;;;5015248;28;20086;-87
2023/10/23 04:02:55;;;;;;;10.43;6.82;;;9.90;99.90;;;;;;5017932;28;20502;-87
2023/10/23 04:05:21;;;;;;;12.85;7.82;;;10.00;99.90;;;;;;5017758;28;20038;-88
2023/10/23 04:07:46;;;;;;;15.88;6.80;;;10.10;99.90;;;;;;5018567;28;20106;-86
2023/10/23 04:10:13;;;;;;;10.55;6.60;;;10.30;99.90;;;;;;5015902;28;20030;-86
2023/10/23 04:12:40;;;;;;;8.77;5.90;;;10.30;99.90;;;;;;5016278;28;20006;-86
2023/10/23 04:15:24;;;;;;;9.32;5.30;;;10.30;99.90;;;;;;5012413;28;20030;-88
2023/10/23 04:17:50;;;;;;;10.55;6.60;;;10.30;99.90;;;;;;5016309;28;20034;-87
2023/10/23 04:20:16;;;;;;;8.75;5.25;;;10.30;99.90;;;;;;5015250;28;20053;-86
2023/10/23 04:22:42;;;;;;;9.90;5.95;;;10.30;99.90;;;;;;5010010;28;20046;-88
2023/10/23 04:25:08;;;;;;;18.40;8.05;;;10.40;99.90;;;;;;5012579;28;20062;-86
2023/10/23 04:27:34;;;;;;;17.63;7.70;;;10.40;99.90;;;;;;5016327;28;20029;-86
2023/10/23 04:30:00;;;;;;;14.75;7.47;;;10.50;99.90;;;;;;5018483;28;20074;-86
2023/10/23 04:32:26;;;;;;;12.68;7.20;;;10.60;99.90;;;;;;5015542;28;20070;-87
2023/10/23 04:34:52;;;;;;;27.10;7.57;;;10.60;99.90;;;;;;5018958;28;20081;-86
2023/10/23 04:37:18;;;;;;;17.77;6.93;;;10.70;99.90;;;;;;5019171;28;20037;-86
2023/10/23 04:39:44;;;;;;;22.45;6.22;;;10.70;99.90;;;;;;5017795;28;20018;-87
2023/10/23 04:42:10;;;;;;;11.02;6.63;;;10.70;99.90;;;;;;5019461;28;20038;-87
2023/10/23 04:44:35;;;;;;;11.02;6.47;;;10.70;99.90;;;;;;5018791;28;20041;-87
2023/10/23 04:47:01;;;;;;;31.42;7.80;;;10.70;99.90;;;;;;5021394;28;20046;-88
2023/10/23 04:49:28;;;;;;;50.10;8.45;;;10.80;99.90;;;;;;5019650;28;20165;-88
2023/10/23 04:51:54;;;;;;;17.92;6.75;;;10.80;99.90;;;;;;5026220;28;20018;-88
2023/10/23 04:54:20;;;;;;;21.77;6.35;;;10.80;99.90;;;;;;5039624;28;20018;-87
2023/10/23 04:56:46;;;;;;;22.48;6.68;;;10.90;99.90;;;;;;5026399;28;20078;-86
2023/10/23 04:59:12;;;;;;;35.15;6.95;;;10.80;99.90;;;;;;5017522;28;20026;-87
2023/10/23 05:01:38;;;;;;;31.70;7.22;;;10.90;99.90;;;;;;5016814;28;20065;-88
2023/10/23 05:04:04;;;;;;;12.18;6.65;;;10.80;99.90;;;;;;5019364;28;20097;-86
2023/10/23 05:06:30;;;;;;;27.70;7.47;;;10.80;99.90;;;;;;5028448;28;20034;-86
2023/10/23 05:08:59;;;;;;;26.35;6.90;;;10.70;99.90;;;;;;5018080;28;20057;-87
2023/10/23 05:11:25;;;;;;;23.90;6.80;;;10.60;99.90;;;;;;5017986;28;20449;-86
2023/10/23 05:13:50;;;;;;;8.80;6.43;;;10.60;99.90;;;;;;5018836;28;20034;-87
2023/10/23 05:16:17;;;;;;;11.63;6.43;;;10.60;99.90;;;;;;5017968;28;20026;-87
2023/10/23 05:18:42;;;;;;;9.50;6.55;;;10.50;99.90;;;;;;5006656;28;20041;-87
2023/10/23 05:21:12;;;;;;;12.43;6.95;;;10.50;99.90;;;;;;5017899;28;20014;-86
2023/10/23 05:23:45;;;;;;;19.27;8.10;;;10.60;99.90;;;;;;5014545;28;20046;-88
2023/10/23 05:26:12;;;;;;;22.25;8.18;;;10.60;99.90;;;;;;4998992;28;20037;-88
2023/10/23 05:28:40;;;;;;;15.65;7.15;;;10.60;99.90;;;;;;4996558;28;20121;-89
2023/10/23 05:31:08;;;;;;;;;;;10.60;99.90;;;;;;4996668;28;20034;-88
2023/10/23 05:33:35;;;;;;;29.00;8.73;;;10.70;99.90;;;;;;4984080;28;20388;-89
2023/10/23 05:36:04;;;;;;;18.00;7.18;;;10.70;99.90;;;;;;4997028;28;20101;-90
2023/10/23 05:38:33;;;;;;;12.98;7.28;;;10.70;99.90;;;;;;4997361;28;20545;-88
2023/10/23 05:40:59;;;;;;;17.15;6.53;;;10.80;99.90;;;;;;4998115;28;20042;-91
2023/10/23 05:43:26;;;;;;;19.02;7.25;;;10.80;99.90;;;;;;4998197;28;20399;-91
2023/10/23 05:45:55;;;;;;;16.25;7.25;;;10.70;99.90;;;;;;4997350;28;20030;-90
2023/10/23 05:48:21;;;;;;;40.17;7.93;;;10.70;99.90;;;;;;4997105;28;20033;-88
2023/10/23 05:51:00;;;;;;;18.45;7.47;;;10.80;99.90;;;;;;4995855;28;20491;-88
2023/10/23 05:53:27;;;;;;;38.97;7.97;;;10.80;99.90;;;;;;4941390;29;20043;-88
2023/10/23 05:55:53;;;;;;;26.90;7.72;;;10.90;99.90;;;;;;4970106;28;20047;-88
2023/10/23 05:58:19;;;;;;;18.67;7.80;;;10.90;99.90;;;;;;4945946;28;20439;-87
2023/10/23 06:00:45;;;;;;;26.15;8.10;;;10.90;99.90;;;;;;4937371;29;20059;-88
2023/10/23 06:03:11;;;;;;;25.08;8.60;;;11.00;99.90;;;;;;4951030;29;20447;-88
2023/10/23 06:05:42;;;;;;;20.35;7.07;;;11.00;99.90;;;;;;4951970;29;20043;-87
2023/10/23 06:08:09;;;;;;;19.10;7.30;;;10.90;99.90;;;;;;4936947;29;20031;-89
2023/10/23 06:10:44;;;;;;;25.83;7.82;;;10.90;99.90;;;;;;4939741;29;20122;-88
2023/10/23 06:13:11;;;;;;;22.27;7.28;;;10.90;99.90;;;;;;4965874;28;20035;-89
2023/10/23 06:15:38;;;;;;;24.55;8.32;;;10.90;99.90;;;;;;4940903;28;20047;-89
2023/10/23 06:18:04;;;;;;;25.38;6.97;;;10.90;99.90;;;;;;4944515;29;20090;-88
2023/10/23 06:20:35;;;;;;;28.83;7.90;;;10.90;99.90;;;;;;4938831;29;20028;-89
2023/10/23 06:23:19;;;;;;;14.30;6.97;;;10.90;99.90;;;;;;4938564;29;20124;-88
2023/10/23 06:25:54;;;;;;;25.70;6.78;;;10.90;99.90;;;;;;4979772;28;20487;-89
2023/10/23 06:28:20;;;;;;;22.40;7.00;;;10.90;99.90;;;;;;4997441;28;20502;-88
2023/10/23 06:30:47;;;;;;;34.75;8.35;;;10.80;99.90;;;;;;4993860;28;20031;-89
2023/10/23 06:33:12;;;;;;;14.98;7.78;;;10.90;99.90;;;;;;4977697;28;20022;-88
2023/10/23 06:35:38;;;;;;;15.05;7.72;;;10.80;99.90;;;;;;4994617;28;20033;-86
2023/10/23 06:38:05;;;;;;;12.57;7.70;;;10.80;99.90;;;;;;4993717;28;20041;-86
2023/10/23 06:40:32;;;;;;;19.83;7.55;;;10.80;99.90;;;;;;4994863;28;20084;-87
2023/10/23 06:42:58;;;;;;;46.37;7.50;;;10.80;99.90;;;;;;4990927;28;20038;-86
2023/10/23 06:45:24;;;;;;;19.45;6.57;;;10.90;99.90;;;;;;4995661;28;20302;-86
2023/10/23 06:47:53;;;;;;;16.88;6.95;;;11.00;99.90;;;;;;5015535;28;20057;-87
2023/10/23 06:50:18;;;;;;;21.38;7.93;;;10.90;99.90;;;;;;5000553;28;20026;-87
2023/10/23 06:52:46;;;;;;;16.65;7.65;;;10.80;99.90;;;;;;4997185;28;20081;-86
2023/10/23 06:55:12;;;;;;;12.77;6.43;;;10.90;99.90;;;;;;4994581;28;20078;-86
2023/10/23 06:57:39;;;;;;;13.68;7.20;;;10.80;99.90;;;;;;4999546;28;20391;-86
2023/10/23 07:00:06;;;;;;;14.40;6.95;;;10.80;99.90;;;;;;4998007;28;20022;-86
2023/10/23 07:02:32;;;;;;;19.55;7.60;;;10.80;99.90;;;;;;4988335;28;20102;-86
2023/10/23 07:04:58;;;;;;;16.83;7.68;;;10.80;99.90;;;;;;5007974;28;20034;-84
2023/10/23 07:07:24;;;;;;;27.77;9.35;;;10.90;99.90;;;;;;4999446;28;20038;-84
2023/10/23 07:09:56;;;;;;;25.25;7.57;;;10.90;99.90;;;;;;4998461;28;20033;-83
2023/10/23 07:12:33;;;;;;;56.10;7.85;;;11.00;99.90;;;;;;4999283;28;20046;-88
2023/10/23 07:15:01;;;;;;;18.85;7.80;;;11.10;99.90;;;;;;5015715;28;20026;-88
2023/10/23 07:17:29;;;;;;;18.55;6.88;;;11.00;99.90;;;;;;5018699;28;20034;-88
2023/10/23 07:19:54;;;;;;;14.95;7.70;;;11.10;99.90;;;;;;4999188;28;20041;-87
2023/10/23 07:22:22;;;;;;;12.98;7.60;;;11.00;99.90;;;;;;5003911;28;20390;-89
2023/10/23 07:24:47;;;;;;;31.80;7.75;;;11.00;99.90;;;;;;4994290;28;20066;-87
2023/10/23 07:27:16;;;;;;;32.10;7.80;;;11.00;99.90;;;;;;4998666;28;20033;-87
2023/10/23 07:29:42;;;;;;;38.38;7.32;;;11.00;99.90;;;;;;4997243;28;20030;-87
2023/10/23 07:32:10;;;;;;;14.98;6.90;;;11.00;99.90;;;;;;4998489;28;20030;-87
2023/10/23 07:37:22;;;;;;;21.73;7.03;;;11.10;99.90;;;;;;5004183;28;20080;-90
2023/10/23 07:39:48;;;;;;;25.83;8.23;;;11.00;99.90;;;;;;5004652;28;20030;-86
2023/10/23 07:42:15;;;;;;;31.98;7.82;;;11.00;99.90;;;;;;5002757;28;20087;-82
2023/10/23 07:44:42;;;;;;;22.00;7.82;;;11.10;99.90;;;;;;5001965;28;20034;-83
2023/10/23 07:47:08;;;;;;;22.20;7.18;;;11.10;99.90;;;;;;5009095;28;20402;-84
2023/10/23 07:49:33;;;;;;;19.02;8.13;;;11.00;99.90;;;;;;5008671;28;20022;-85
2023/10/23 07:51:59;;;;;;;17.55;8.85;;;11.00;99.90;;;;;;4996490;28;20041;-83
2023/10/23 07:54:25;;;;;;;14.65;7.85;;;11.00;99.90;;;;;;5014903;28;20036;-85
2023/10/23 07:56:53;;;;;;;15.02;7.75;;;11.00;99.90;;;;;;5002424;28;20045;-84
2023/10/23 07:59:21;;;;;;;17.65;8.90;;;11.00;99.90;;;;;;5015955;28;20034;-84
2023/10/23 08:01:48;;;;;;;19.23;7.85;;;11.10;99.90;;;;;;5009834;28;20052;-85
2023/10/23 08:04:14;;;;;;;19.90;8.00;;;11.10;99.90;;;;;;4995418;28;20438;-85
2023/10/23 08:06:40;;;;;;;16.80;7.88;;;11.20;99.90;;;;;;4998413;28;20069;-85
2023/10/23 08:09:06;;;;;;;14.35;8.23;;;11.20;99.90;;;;;;5004272;28;20030;-86
2023/10/23 08:11:32;;;;;;;18.70;7.55;;;11.20;99.90;;;;;;4996813;28;20386;-85
2023/10/23 08:13:59;;;;;;;16.02;8.10;;;11.30;99.90;;;;;;4995476;28;20041;-85
2023/10/23 08:16:25;;;;;;;27.67;9.07;;;11.30;99.90;;;;;;4981726;28;20050;-85
2023/10/23 08:18:50;;;;;;;30.42;7.82;;;11.40;99.90;;;;;;4994895;28;20525;-85
2023/10/23 08:21:16;;;;;;;20.67;8.00;;;11.40;99.90;;;;;;4997630;28;20447;-85
2023/10/23 08:23:52;;;;;;;26.48;8.93;;;11.40;99.90;;;;;;5010735;28;20049;-85
2023/10/23 08:26:19;;;;;;;26.45;8.35;;;11.40;99.90;;;;;;4997436;28;20019;-85
2023/10/23 08:28:45;;;;;;;26.50;9.05;;;11.40;99.90;;;;;;4996198;28;20026;-85
2023/10/23 08:31:11;;;;;;;27.27;7.75;;;11.50;99.90;;;;;;4995031;28;20033;-84
2023/10/23 08:33:37;;;;;;;23.15;8.13;;;11.50;99.90;;;;;;4997951;28;20036;-84
2023/10/23 08:36:03;;;;;;;29.75;9.23;;;11.50;99.90;;;;;;4998301;28;20021;-85
2023/10/23 08:38:33;;;;;;;14.30;8.05;;;11.50;99.90;;;;;;4997814;28;20022;-89
2023/10/23 08:41:01;;;;;;;15.75;8.02;;;11.50;99.90;;;;;;4979868;28;20062;-85
2023/10/23 08:43:27;;;;;;;20.67;9.13;;;11.50;99.90;;;;;;4995225;28;20026;-85
2023/10/23 08:45:54;;;;;;;19.13;8.15;;;11.40;99.90;;;;;;4997066;28;20039;-84
2023/10/23 08:48:21;;;;;;;22.13;10.00;;;11.50;99.90;;;;;;4996016;28;20030;-84
2023/10/23 08:50:48;;;;;;;16.83;8.95;;;11.50;99.90;;;;;;4995491;28;20034;-84
2023/10/23 08:53:16;;;;;;;21.35;10.27;;;11.60;99.90;;;;;;5009773;28;20555;-84
2023/10/23 08:55:44;;;;;;;20.67;9.50;;;11.60;99.90;;;;;;5015532;28;20560;-84
2023/10/23 08:58:13;;;;;;;20.00;10.45;;;11.70;99.90;;;;;;5014846;28;20048;-85
2023/10/23 09:00:39;;;;;;;19.20;9.43;;;11.70;99.90;;;;;;5015088;28;20117;-84
2023/10/23 09:03:05;;;;;;;29.20;11.50;;;11.70;99.90;;;;;;5016207;28;20061;-85
2023/10/23 09:05:31;;;;;;;24.02;11.35;;;11.80;99.90;;;;;;5016562;28;20490;-85
2023/10/23 09:07:57;;;;;;;19.95;10.45;;;11.90;99.90;;;;;;5016379;28;20478;-85
2023/10/23 09:10:23;;;;;;;23.25;10.40;;;12.00;99.90;;;;;;5014805;28;20026;-84
2023/10/23 09:12:56;;;;;;;24.40;10.98;;;11.90;99.90;;;;;;5014551;28;20022;-84
2023/10/23 09:15:23;;;;;;;20.15;9.82;;;11.90;99.90;;;;;;5016162;28;20060;-84
2023/10/23 09:17:49;;;;;;;28.38;10.75;;;11.90;99.90;;;;;;5015606;28;20490;-85
2023/10/23 09:20:22;;;;;;;24.05;11.52;;;11.90;99.90;;;;;;5016014;28;20091;-86
2023/10/23 09:22:49;;;;;;;24.30;11.77;;;11.90;99.90;;;;;;5014912;28;20580;-85
2023/10/23 09:25:24;;;;;;;21.65;9.90;;;11.90;99.90;;;;;;5014452;28;20446;-85
2023/10/23 09:27:50;;;;;;;20.95;11.07;;;11.80;99.90;;;;;;5014425;28;20032;-85
2023/10/23 09:30:21;;;;;;;23.88;11.85;;;11.80;99.90;;;;;;4974543;28;20050;-85
2023/10/23 09:32:54;;;;;;;20.10;10.55;;;11.80;99.90;;;;;;4958175;28;20420;-85
2023/10/23 09:35:25;;;;;;;17.33;9.38;;;11.80;99.90;;;;;;4974541;28;20129;-84
2023/10/23 09:37:51;;;;;;;24.52;10.90;;;11.80;99.90;;;;;;4958584;28;20105;-85
2023/10/23 09:40:17;;;;;;;28.25;11.50;;;11.90;99.90;;;;;;4974778;28;20085;-85
2023/10/23 09:42:45;;;;;;;23.70;10.10;;;11.90;99.90;;;;;;4973916;28;20039;-85
2023/10/23 09:45:11;;;;;;;23.63;10.95;;;11.90;99.90;;;;;;4957708;28;20526;-84
2023/10/23 09:47:41;;;;;;;28.02;11.68;;;12.00;99.90;;;;;;4974644;28;20027;-85
2023/10/23 09:50:08;;;;;;;29.23;11.20;;;12.10;99.90;;;;;;4974786;28;20082;-85
2023/10/23 09:52:35;;;;;;;31.60;11.98;;;12.20;99.90;;;;;;4957476;28;20042;-85
2023/10/23 09:55:09;;;;;;;20.55;8.60;;;12.20;99.90;;;;;;4957640;28;20043;-84
2023/10/23 09:57:36;;;;;;;34.55;12.63;;;12.10;99.90;;;;;;4958233;28;20067;-84
2023/10/23 10:00:13;;;;;;;30.08;11.13;;;12.20;99.90;;;;;;4958092;28;20046;-85
2023/10/23 10:02:44;;;;;;;33.40;10.90;;;12.20;99.90;;;;;;5013622;28;20026;-85
2023/10/23 10:05:13;;;;;;;27.23;11.40;;;12.30;99.90;;;;;;5014565;28;20097;-88
2023/10/23 10:07:47;;;;;;;25.17;11.27;;;12.30;99.90;;;;;;5014406;28;20038;-88
2023/10/23 10:10:14;;;;;;;28.20;10.77;;;12.20;99.90;;;;;;5016250;28;20438;-88
2023/10/23 10:12:42;;;;;;;29.38;11.93;;;12.20;99.90;;;;;;5017233;28;20466;-88
2023/10/23 10:15:11;;;;;;;30.35;11.18;;;12.30;99.90;;;;;;5016585;28;20116;-87
2023/10/23 10:17:39;;;;;;;29.98;12.82;;;12.20;99.90;;;;;;5018199;28;20038;-89
2023/10/23 10:20:08;;;;;;;31.63;12.18;;;12.30;99.90;;;;;;5016850;28;20021;-89
2023/10/23 10:22:36;;;;;;;40.58;14.05;;;12.20;99.90;;;;;;5021405;28;20034;-88
2023/10/23 10:25:06;;;;;;;32.00;13.55;;;12.20;99.90;;;;;;5019425;28;20037;-87
2023/10/23 10:27:35;;;;;;;29.65;10.82;;;12.30;99.90;;;;;;5018809;28;20376;-89
2023/10/23 10:30:05;;;;;;;31.02;11.18;;;12.40;99.90;;;;;;5019750;28;20026;-90
2023/10/23 10:32:35;;;;;;;30.67;11.65;;;12.40;99.90;;;;;;5019834;28;20026;-87
2023/10/23 10:35:07;;;;;;;22.08;9.60;;;12.30;99.90;;;;;;5018105;28;20100;-88
2023/10/23 10:37:35;;;;;;;22.65;9.75;;;12.30;99.90;;;;;;5019877;28;20482;-87
2023/10/23 10:40:03;;;;;;;21.50;8.85;;;12.40;99.90;;;;;;5015230;28;20041;-88
2023/10/23 10:42:30;;;;;;;22.10;10.50;;;12.50;99.90;;;;;;5017732;28;20034;-87
2023/10/23 10:45:09;;;;;;;23.80;10.43;;;12.50;99.90;;;;;;5015306;28;20034;-89
2023/10/23 10:47:43;;;;;;;33.33;11.38;;;12.60;99.90;;;;;;5018697;28;20054;-89
2023/10/23 10:50:10;;;;;;;22.25;9.85;;;12.70;99.90;;;;;;5008795;28;20038;-90
2023/10/23 10:52:37;;;;;;;23.85;9.40;;;12.70;99.90;;;;;;4998918;28;20097;-89
2023/10/23 10:55:08;;;;;;;22.33;9.23;;;12.70;99.90;;;;;;4999902;28;20069;-90
2023/10/23 10:57:36;;;;;;;23.70;9.18;;;12.80;99.90;;;;;;5000266;28;20113;-90
2023/10/23 11:00:03;;;;;;;28.20;10.43;;;12.80;99.90;;;;;;4999391;28;20494;-88
2023/10/23 11:02:32;;;;;;;18.00;7.97;;;12.80;99.90;;;;;;4997623;28;20061;-85
2023/10/23 11:05:06;;;;;;;17.30;8.70;;;12.80;99.90;;;;;;4996688;28;20069;-85
2023/10/23 11:07:31;;;;;;;16.63;8.48;;;12.80;99.90;;;;;;4994282;28;20061;-85
2023/10/23 11:09:57;;;;;;;15.98;8.85;;;12.90;99.90;;;;;;4995592;28;20463;-86
2023/10/23 11:12:24;;;;;;;15.63;8.48;;;13.00;99.90;;;;;;4995621;28;20030;-86
2023/10/23 11:14:50;;;;;;;17.65;8.85;;;13.10;99.90;;;;;;4996756;28;20038;-85
2023/10/23 11:17:16;;;;;;;25.25;7.55;;;13.10;99.90;;;;;;4996562;28;20034;-87
2023/10/23 11:19:43;;;;;;;23.23;8.98;;;13.20;99.90;;;;;;4995577;28;20082;-87
2023/10/23 11:22:13;;;;;;;27.90;9.57;;;13.10;99.90;;;;;;4995151;28;20038;-85
2023/10/23 11:24:39;;;;;;;22.33;8.40;;;13.10;99.90;;;;;;4995532;28;20034;-85
2023/10/23 11:27:06;;;;;;;11.95;7.40;;;13.20;99.90;;;;;;4995416;28;20145;-85
2023/10/23 11:29:48;;;;;;;15.95;7.63;;;13.20;99.90;;;;;;4996501;28;20062;-84
2023/10/23 11:32:17;;;;;;;14.30;7.82;;;13.20;99.90;;;;;;4994220;28;20497;-84
2023/10/23 11:34:44;;;;;;;14.32;7.57;;;13.20;99.90;;;;;;4939639;29;20047;-85
2023/10/23 11:37:12;;;;;;;24.42;8.40;;;13.20;99.90;;;;;;4956194;29;20043;-86
2023/10/23 11:39:39;;;;;;;15.18;7.22;;;13.30;99.90;;;;;;4955754;28;20050;-85
2023/10/23 11:42:05;;;;;;;20.42;7.45;;;13.30;99.90;;;;;;4939648;29;20031;-86
2023/10/23 11:44:36;;;;;;;15.88;7.32;;;13.30;99.90;;;;;;4955448;29;20035;-85
2023/10/23 11:47:20;;;;;;;14.40;7.43;;;13.40;99.90;;;;;;4955285;29;20035;-85
2023/10/23 11:49:50;;;;;;;13.40;6.13;;;13.40;99.90;;;;;;4955199;29;20114;-85
2023/10/23 11:52:16;;;;;;;14.05;6.75;;;13.40;99.90;;;;;;4938835;29;20040;-85
2023/10/23 11:54:42;;;;;;;12.68;6.45;;;13.40;99.90;;;;;;4938783;29;20134;-85
2023/10/23 11:57:08;;;;;;;15.82;6.70;;;13.50;99.90;;;;;;4955043;29;20464;-85
2023/10/23 11:59:40;;;;;;;21.00;7.27;;;13.50;99.90;;;;;;4955216;29;20043;-85
2023/10/23 12:02:06;;;;;;;12.55;6.38;;;13.50;99.90;;;;;;4954956;29;20031;-84
2023/10/23 12:04:35;;;;;;;10.05;5.80;;;13.70;99.90;;;;;;4955746;28;20070;-85
2023/10/23 12:07:01;;;;;;;12.75;6.25;;;13.70;99.90;;;;;;4996373;28;20027;-85
2023/10/23 12:09:27;;;;;;;18.70;6.13;;;13.70;99.90;;;;;;4994568;28;20053;-85
2023/10/23 12:11:52;;;;;;;13.40;6.00;;;13.70;99.90;;;;;;4994461;28;20054;-85
2023/10/23 12:14:18;;;;;;;13.18;5.68;;;13.70;99.90;;;;;;4994227;28;20029;-85
2023/10/23 12:16:44;;;;;;;17.75;6.50;;;13.80;99.90;;;;;;4994084;28;20030;-85
2023/10/23 12:19:10;;;;;;;9.30;6.10;;;13.90;99.90;;;;;;4993723;28;20050;-85
2023/10/23 12:21:35;;;;;;;13.23;6.13;;;14.00;99.90;;;;;;4995871;28;20038;-85
2023/10/23 12:24:02;;;;;;;10.70;5.88;;;14.00;99.90;;;;;;4994137;28;20433;-84
2023/10/23 12:26:30;;;;;;;10.07;6.03;;;14.00;99.90;;;;;;4995176;28;20042;-84
2023/10/23 12:28:56;;;;;;;10.95;5.18;;;14.10;99.90;;;;;;4994110;28;20081;-85
2023/10/23 12:31:22;;;;;;;10.18;5.85;;;14.10;99.90;;;;;;4995242;28;20038;-85
2023/10/23 12:33:48;;;;;;;10.82;5.13;;;14.20;99.90;;;;;;4990678;28;20503;-84
2023/10/23 12:36:14;;;;;;;16.35;6.03;;;14.30;99.90;;;;;;4995754;28;20062;-84
2023/10/23 12:38:40;;;;;;;15.27;7.60;;;14.30;99.90;;;;;;4991036;28;20092;-85
2023/10/23 12:41:06;;;;;;;17.08;4.93;;;14.20;99.90;;;;;;4993768;28;20088;-85
2023/10/23 12:43:32;;;;;;;6.30;4.32;;;14.30;99.90;;;;;;4990322;28;20070;-83